createdAt,value
2018-09-13T00:03:47.653Z,97287.27
2018-09-13T00:08:42.489Z,97292.11
2018-09-13T00:13:37.081Z,97284.67
2018-09-13T00:18:31.685Z,97279.69
2018-09-13T00:23:26.286Z,97281.28
2018-09-13T00:28:20.806Z,97297.77
2018-09-13T00:33:15.373Z,97302.58
2018-09-13T00:38:09.950Z,97298.84
2018-09-13T00:43:04.513Z,97305.25
2018-09-13T00:47:59.061Z,97304.44
2018-09-13T00:52:53.639Z,97301.79
2018-09-13T00:57:48.213Z,97302.58
2018-09-13T01:02:42.724Z,97288.47
2018-09-13T01:07:37.304Z,97283.70
2018-09-13T01:12:31.904Z,97284.22
2018-09-13T01:17:26.513Z,97279.95
2018-09-13T01:22:21.044Z,97280.49
2018-09-13T01:27:15.597Z,97274.91
2018-09-13T01:32:10.116Z,97284.49
2018-09-13T01:37:04.605Z,97272.77
2018-09-13T01:41:59.100Z,97272.24
2018-09-13T01:46:53.620Z,97264.27
2018-09-13T01:51:48.154Z,97255.95
2018-09-13T01:56:42.666Z,97244.77
2018-09-13T02:01:37.172Z,97234.41
2018-09-13T02:06:31.778Z,97224.02
2018-09-13T02:11:26.530Z,97207.23
2018-09-13T02:16:21.105Z,97193.95
2018-09-13T02:21:15.667Z,97204.89
2018-09-13T02:26:10.227Z,97217.67
2018-09-13T02:31:04.785Z,97209.97
2018-09-13T02:35:59.361Z,97199.84
2018-09-13T02:40:53.904Z,97200.36
2018-09-13T02:45:48.521Z,97190.00
2018-09-13T02:50:43.069Z,97196.37
2018-09-13T02:55:37.716Z,97202.47
2018-09-13T03:00:32.254Z,97188.41
2018-09-13T03:05:26.824Z,97189.18
2018-09-13T03:10:21.442Z,97180.66
2018-09-13T03:15:15.973Z,97176.13
2018-09-13T03:20:10.701Z,97174.53
2018-09-13T03:25:05.928Z,97165.50
2018-09-13T03:30:00.488Z,97161.52
2018-09-13T03:34:55.069Z,97161.24
2018-09-13T03:39:49.625Z,97162.06
2018-09-13T03:44:44.162Z,97165.23
2018-09-13T03:49:38.700Z,97158.34
2018-09-13T03:54:33.269Z,97142.64
2018-09-13T03:59:27.844Z,97135.73
2018-09-13T04:04:22.530Z,97147.96
2018-09-13T04:09:17.136Z,97148.22
2018-09-13T04:14:11.734Z,97143.61
2018-09-13T04:19:06.389Z,97149.18
2018-09-13T04:24:01.513Z,97142.27
2018-09-13T04:28:56.089Z,97136.70
2018-09-13T04:33:50.721Z,97145.47
2018-09-13T04:38:45.313Z,97141.20
2018-09-13T04:43:39.892Z,97137.44
2018-09-13T04:48:34.527Z,97135.04
2018-09-13T04:53:29.108Z,97133.43
2018-09-13T04:58:23.865Z,97142.17
2018-09-13T05:03:18.635Z,97142.25
2018-09-13T05:08:13.285Z,97137.91
2018-09-13T05:13:08.309Z,97132.59
2018-09-13T05:18:04.415Z,97133.67
2018-09-13T05:22:59.091Z,97126.53
2018-09-13T05:27:53.805Z,97112.72
2018-09-13T05:32:48.353Z,97105.88
2018-09-13T05:37:43.717Z,97107.84
2018-09-13T05:42:38.488Z,97110.53
2018-09-13T05:47:33.499Z,97119.47
2018-09-13T05:52:28.076Z,97110.73
2018-09-13T05:57:22.924Z,97102.56
2018-09-13T06:02:17.861Z,97108.80
2018-09-13T06:07:12.869Z,97103.52
2018-09-13T06:12:15.525Z,97107.23
2018-09-13T06:17:11.645Z,97119.95
2018-09-13T06:22:12.967Z,97125.39
2018-09-13T06:27:07.700Z,97120.36
2018-09-13T06:32:02.356Z,97127.72
2018-09-13T06:36:56.906Z,97128.73
2018-09-13T06:41:51.516Z,97136.30
2018-09-13T06:46:46.428Z,97135.55
2018-09-13T06:51:41.253Z,97125.80
2018-09-13T06:56:36.070Z,97131.53
2018-09-13T07:01:30.532Z,97124.63
2018-09-13T07:06:26.200Z,97126.01
2018-09-13T07:11:23.488Z,97122.56
2018-09-13T07:16:32.483Z,97122.18
2018-09-13T07:21:27.124Z,97123.78
2018-09-13T07:26:21.647Z,97119.61
2018-09-13T07:31:16.453Z,97124.26
2018-09-13T07:36:11.212Z,97132.25
2018-09-13T07:41:05.725Z,97135.86
2018-09-13T07:46:00.574Z,97133.98
2018-09-13T07:51:01.608Z,97132.05
2018-09-13T07:55:59.849Z,97140.57
2018-09-13T08:01:03.786Z,97139.37
2018-09-13T08:06:01.450Z,97146.55
2018-09-13T08:10:56.152Z,97154.16
2018-09-13T08:15:51.506Z,97161.25
2018-09-13T08:20:46.506Z,97151.99
2018-09-13T08:25:42.580Z,97160.39
2018-09-13T08:30:37.193Z,97147.24
2018-09-13T08:35:34.216Z,97151.34
2018-09-13T08:40:30.288Z,97151.05
2018-09-13T08:45:26.508Z,97142.86
2018-09-13T08:50:25.652Z,97149.25
2018-09-13T08:55:20.511Z,97152.05
2018-09-13T09:00:18.728Z,97153.25
2018-09-13T09:05:13.475Z,97157.31
2018-09-13T09:10:08.328Z,97160.38
2018-09-13T09:15:03.126Z,97154.98
2018-09-13T09:19:59.023Z,97150.23
2018-09-13T09:24:55.246Z,97146.89
2018-09-13T09:29:50.177Z,97141.72
2018-09-13T09:34:44.956Z,97138.08
2018-09-13T09:39:39.677Z,97126.29
2018-09-13T09:44:35.870Z,97123.23
2018-09-13T09:49:30.585Z,97109.94
2018-09-13T09:54:25.521Z,97118.59
2018-09-13T09:59:30.040Z,97110.00
2018-09-13T10:04:24.910Z,97104.52
2018-09-13T10:09:19.528Z,97106.97
2018-09-13T10:14:15.360Z,97106.08
2018-09-13T10:19:15.142Z,97102.98
2018-09-13T10:24:15.884Z,97096.11
2018-09-13T10:29:15.740Z,97089.96
2018-09-13T10:34:15.597Z,97090.79
2018-09-13T10:39:16.387Z,97093.03
2018-09-13T10:44:18.018Z,97087.77
2018-09-13T10:49:18.008Z,97079.56
2018-09-13T10:54:28.997Z,97068.89
2018-09-13T10:59:41.100Z,97064.70
2018-09-13T11:04:46.621Z,97059.19
2018-09-13T11:09:41.592Z,97049.91
2018-09-13T11:14:55.795Z,97046.22
2018-09-13T11:20:00.779Z,97041.79
2018-09-13T11:24:56.488Z,97035.06
2018-09-13T11:30:02.698Z,97031.88
2018-09-13T11:35:12.184Z,97022.25
2018-09-13T11:40:22.013Z,97023.11
2018-09-13T11:45:17.691Z,97011.66
2018-09-13T11:50:12.791Z,97015.01
2018-09-13T11:55:07.705Z,97010.98
2018-09-13T12:00:02.357Z,97015.31
2018-09-13T12:04:57.170Z,97000.44
2018-09-13T12:09:51.698Z,96983.52
2018-09-13T12:14:51.743Z,96970.80
2018-09-13T12:19:46.640Z,96964.48
2018-09-13T12:24:42.929Z,96957.67
2018-09-13T12:29:37.520Z,96957.77
2018-09-13T12:34:32.269Z,96949.03
2018-09-13T12:39:26.773Z,96947.78
2018-09-13T12:44:22.938Z,96949.74
2018-09-13T12:49:17.521Z,96932.83
2018-09-13T12:54:12.268Z,96929.75
2018-09-13T12:59:07.440Z,96917.45
2018-09-13T13:04:01.997Z,96915.27
2018-09-13T13:08:56.607Z,96915.66
2018-09-13T13:13:51.108Z,96905.83
2018-09-13T13:18:45.742Z,96908.28
2018-09-13T13:23:40.345Z,96907.20
2018-09-13T13:28:34.840Z,96906.11
2018-09-13T13:33:40.681Z,96915.10
2018-09-13T13:38:37.233Z,96927.77
2018-09-13T13:43:53.341Z,96912.58
2018-09-13T13:49:10.374Z,96916.61
2018-09-13T13:54:05.777Z,96927.11
2018-09-13T13:59:00.913Z,96908.05
2018-09-13T14:03:56.059Z,96916.78
2018-09-13T14:08:50.763Z,96918.23
2018-09-13T14:13:45.429Z,96927.55
2018-09-13T14:18:40.236Z,96962.16
2018-09-13T14:23:35.850Z,96927.30
2018-09-13T14:28:30.766Z,96925.84
2018-09-13T14:33:27.561Z,96918.14
2018-09-13T14:38:22.330Z,96912.78
2018-09-13T14:43:17.154Z,96917.29
2018-09-13T14:48:11.820Z,96920.38
2018-09-13T14:53:06.709Z,96920.31
2018-09-13T14:58:02.678Z,96914.39
2018-09-13T15:02:57.643Z,96900.54
2018-09-13T15:07:52.331Z,96912.94
2018-09-13T15:12:47.996Z,96918.51
2018-09-13T15:17:42.577Z,96905.66
2018-09-13T15:22:37.798Z,96899.58
2018-09-13T15:27:32.418Z,96900.67
2018-09-13T15:33:01.551Z,96910.31
2018-09-13T15:37:56.747Z,96936.03
2018-09-13T15:42:51.566Z,96935.09
2018-09-13T15:47:46.423Z,96941.84
2018-09-13T15:52:41.189Z,96944.41
2018-09-13T15:57:35.838Z,96941.59
2018-09-13T16:02:30.567Z,96940.77
2018-09-13T16:07:25.838Z,96940.69
2018-09-13T16:12:20.519Z,96937.23
2018-09-13T16:17:16.032Z,96943.10
2018-09-13T16:22:11.189Z,96946.33
2018-09-13T16:27:05.929Z,96961.69
2018-09-13T16:32:02.045Z,96971.20
2018-09-13T16:37:05.101Z,96970.25
2018-09-13T16:42:04.740Z,96971.13
2018-09-13T16:47:08.263Z,96988.22
2018-09-13T16:52:02.944Z,96988.10
2018-09-13T16:56:58.237Z,96997.36
2018-09-13T17:01:52.893Z,96999.55
2018-09-13T17:06:48.130Z,97008.46
2018-09-13T17:11:42.657Z,97034.98
2018-09-13T17:16:38.246Z,97033.22
2018-09-13T17:21:32.839Z,97037.33
2018-09-13T17:26:27.502Z,97032.69
2018-09-13T17:31:22.413Z,97040.89
2018-09-13T17:36:17.120Z,97059.22
2018-09-13T17:41:11.660Z,97066.74
2018-09-13T17:46:06.317Z,97074.75
2018-09-13T17:51:00.845Z,97079.66
2018-09-13T17:55:55.458Z,97086.60
2018-09-13T18:00:50.030Z,97092.22
2018-09-13T18:05:44.735Z,97102.07
2018-09-13T18:10:39.314Z,97125.29
2018-09-13T18:15:33.997Z,97141.06
2018-09-13T18:20:28.540Z,97154.42
2018-09-13T18:25:23.125Z,97166.66
2018-09-13T18:30:17.705Z,97166.64
2018-09-13T18:35:12.293Z,97171.67
2018-09-13T18:40:06.956Z,97174.06
2018-09-13T18:45:01.661Z,97175.35
2018-09-13T18:49:56.821Z,97187.31
2018-09-13T18:54:51.433Z,97191.33
2018-09-13T18:59:46.207Z,97199.03
2018-09-13T19:04:40.763Z,97200.59
2018-09-13T19:09:35.319Z,97205.36
2018-09-13T19:14:29.896Z,97221.02
2018-09-13T19:19:24.449Z,97241.75
2018-09-13T19:24:19.086Z,97249.66
2018-09-13T19:29:13.574Z,97267.97
2018-09-13T19:34:08.116Z,97277.55
2018-09-13T19:39:02.653Z,97281.50
2018-09-13T19:43:57.248Z,97272.98
2018-09-13T19:48:51.789Z,97274.80
2018-09-13T19:53:46.434Z,97273.40
2018-09-13T19:58:41.021Z,97259.05
2018-09-13T20:03:35.581Z,97264.04
2018-09-13T20:08:30.117Z,97258.97
2018-09-13T20:13:24.709Z,97262.94
2018-09-13T20:18:19.303Z,97264.83
2018-09-13T20:23:13.878Z,97257.72
2018-09-13T20:28:08.317Z,97259.83
2018-09-13T20:33:03.008Z,97254.55
2018-09-13T20:37:57.579Z,97244.50
2018-09-13T20:42:52.223Z,97230.41
2018-09-13T20:47:46.849Z,97227.92
2018-09-13T20:52:41.471Z,97226.03
2018-09-13T20:57:36.101Z,97226.81
2018-09-13T21:02:30.692Z,97218.64
2018-09-13T21:07:25.317Z,97226.08
2018-09-13T21:12:19.945Z,97225.58
2018-09-13T21:17:14.533Z,97223.97
2018-09-13T21:22:10.500Z,97220.76
2018-09-13T21:27:05.245Z,97219.70
2018-09-13T21:31:59.869Z,97222.91
2018-09-13T21:36:54.496Z,97218.36
2018-09-13T21:41:49.049Z,97222.91
2018-09-13T21:46:43.611Z,97211.25
2018-09-13T21:51:38.208Z,97214.14
2018-09-13T21:56:32.961Z,97208.33
2018-09-13T22:01:27.493Z,97201.13
2018-09-13T22:06:22.038Z,97204.81
2018-09-13T22:11:16.660Z,97205.59
2018-09-13T22:16:11.111Z,97202.41
2018-09-13T22:21:05.707Z,97198.92
2018-09-13T22:26:00.295Z,97215.63
2018-09-13T22:30:54.825Z,97213.28
2018-09-13T22:35:49.421Z,97204.55
2018-09-13T22:40:44.097Z,97198.45
2018-09-13T22:45:38.569Z,97200.56
2018-09-13T22:50:33.085Z,97193.89
2018-09-13T22:55:27.568Z,97192.25
2018-09-13T23:00:22.108Z,97196.56
2018-09-13T23:05:17.486Z,97203.60
2018-09-13T23:10:11.961Z,97205.69
2018-09-13T23:15:06.584Z,97209.41
2018-09-13T23:20:01.181Z,97209.15
2018-09-13T23:24:55.746Z,97207.33
2018-09-13T23:29:50.284Z,97208.92
2018-09-13T23:34:44.832Z,97203.08
2018-09-13T23:39:39.660Z,97206.04
2018-09-13T23:44:33.846Z,97203.16
2018-09-13T23:49:28.349Z,97209.45
2018-09-13T23:54:22.836Z,97208.09
2018-09-13T23:59:17.353Z,97221.03
